createdAt,value
2022-10-05T00:02:22.783Z,101438.13
2022-10-05T00:04:53.756Z,101432.72
2022-10-05T00:07:21.697Z,101447.72
2022-10-05T00:09:57.966Z,101454.16
2022-10-05T00:12:26.054Z,101458.84
2022-10-05T00:14:57.772Z,101453.69
2022-10-05T00:17:27.292Z,101454.53
2022-10-05T00:19:54.229Z,101450.63
2022-10-05T00:22:33.842Z,101447.47
2022-10-05T00:25:02.098Z,101444.94
2022-10-05T00:27:34.171Z,101444.63
2022-10-05T00:30:11.050Z,101448.31
2022-10-05T00:32:37.444Z,101446.47
2022-10-05T00:35:04.030Z,101444.63
2022-10-05T00:37:30.448Z,101442.94
2022-10-05T00:39:56.960Z,101439.91
2022-10-05T00:42:51.597Z,101434.38
2022-10-05T00:45:30.417Z,101448.53
2022-10-05T00:48:22.416Z,101446.84
2022-10-05T00:50:54.679Z,101436.38
2022-10-05T00:54:02.670Z,101430.00
2022-10-05T00:56:38.567Z,101426.97
2022-10-05T00:59:07.735Z,101417.91
2022-10-05T01:01:45.277Z,101412.69
2022-10-05T01:04:35.366Z,101399.84
2022-10-05T01:07:32.429Z,101396.34
2022-10-05T01:10:17.439Z,101385.59
2022-10-05T01:13:02.810Z,101390.94
2022-10-05T01:15:39.769Z,101396.16
2022-10-05T01:18:13.875Z,101398.69
2022-10-05T01:21:02.051Z,101404.91
2022-10-05T01:23:57.506Z,101395.31
2022-10-05T01:27:01.370Z,101395.00
2022-10-05T01:29:36.823Z,101406.09
2022-10-05T01:32:33.567Z,101390.25
2022-10-05T01:35:12.168Z,101382.19
2022-10-05T01:37:46.847Z,101375.25
2022-10-05T01:40:42.980Z,101367.19
2022-10-05T01:43:34.027Z,101365.19
2022-10-05T01:46:14.555Z,101366.84
2022-10-05T01:48:49.967Z,101365.34
2022-10-05T01:51:35.368Z,101378.13
2022-10-05T01:54:10.807Z,101370.88
2022-10-05T01:56:46.747Z,101372.88
2022-10-05T01:59:25.051Z,101372.72
2022-10-05T02:01:59.802Z,101366.50
2022-10-05T02:05:01.093Z,101369.19
2022-10-05T02:07:25.776Z,101371.34
2022-10-05T02:09:59.310Z,101370.03
2022-10-05T02:12:34.779Z,101356.75
2022-10-05T02:15:10.342Z,101357.25
2022-10-05T02:17:44.195Z,101356.41
2022-10-05T02:20:15.031Z,101358.25
2022-10-05T02:22:46.930Z,101358.59
2022-10-05T02:25:16.922Z,101353.69
2022-10-05T02:27:53.854Z,101359.59
2022-10-05T02:30:20.471Z,101365.97
2022-10-05T02:32:58.910Z,101361.44
2022-10-05T02:35:25.898Z,101362.59
2022-10-05T02:38:10.610Z,101351.84
2022-10-05T02:40:43.890Z,101352.53
2022-10-05T02:43:18.814Z,101350.00
2022-10-05T02:46:00.266Z,101347.47
2022-10-05T02:49:00.079Z,101333.16
2022-10-05T02:51:33.547Z,101332.84
2022-10-05T02:54:02.896Z,101324.25
2022-10-05T02:56:41.335Z,101308.78
2022-10-05T02:59:16.647Z,101314.78
2022-10-05T03:01:52.232Z,101313.63
2022-10-05T03:04:42.726Z,101315.97
2022-10-05T03:07:18.472Z,101318.84
2022-10-05T03:10:04.866Z,101314.13
2022-10-05T03:13:08.723Z,101316.16
2022-10-05T03:15:59.876Z,101314.97
2022-10-05T03:18:32.204Z,101322.53
2022-10-05T03:21:17.203Z,101315.31
2022-10-05T03:24:17.278Z,101312.09
2022-10-05T03:27:29.354Z,101300.88
2022-10-05T03:30:01.877Z,101303.03
2022-10-05T03:32:45.091Z,101298.34
2022-10-05T03:35:17.418Z,101306.41
2022-10-05T03:38:08.025Z,101298.69
2022-10-05T03:40:50.559Z,101305.75
2022-10-05T03:43:19.726Z,101293.16
2022-10-05T03:46:17.635Z,101280.00
2022-10-05T03:48:52.334Z,101280.53
2022-10-05T03:51:29.526Z,101285.06
2022-10-05T03:54:23.294Z,101286.25
2022-10-05T03:56:55.651Z,101287.25
2022-10-05T03:59:37.868Z,101283.56
2022-10-05T04:02:18.966Z,101283.56
2022-10-05T04:04:52.733Z,101268.41
2022-10-05T04:07:37.913Z,101274.47
2022-10-05T04:10:15.580Z,101274.78
2022-10-05T04:12:46.314Z,101275.84
2022-10-05T04:15:23.418Z,101284.72
2022-10-05T04:18:00.712Z,101285.56
2022-10-05T04:20:36.158Z,101285.75
2022-10-05T04:23:17.142Z,101280.38
2022-10-05T04:25:49.021Z,101277.50
2022-10-05T04:28:46.339Z,101285.41
2022-10-05T04:31:21.464Z,101291.97
2022-10-05T04:34:00.503Z,101282.38
2022-10-05T04:36:35.691Z,101271.63
2022-10-05T04:39:14.735Z,101270.25
2022-10-05T04:41:50.338Z,101272.09
2022-10-05T04:44:26.130Z,101273.94
2022-10-05T04:47:21.710Z,101268.56
2022-10-05T04:50:11.158Z,101266.06
2022-10-05T04:53:03.858Z,101263.38
2022-10-05T04:55:52.407Z,101266.25
2022-10-05T04:58:55.973Z,101261.53
2022-10-05T05:01:41.703Z,101263.38
2022-10-05T05:04:26.691Z,101262.53
2022-10-05T05:07:14.607Z,101256.63
2022-10-05T05:10:12.302Z,101271.09
2022-10-05T05:13:04.427Z,101267.56
2022-10-05T05:15:37.893Z,101269.78
2022-10-05T05:18:31.611Z,101256.47
2022-10-05T05:21:07.041Z,101265.41
2022-10-05T05:23:42.377Z,101264.56
2022-10-05T05:26:23.417Z,101253.44
2022-10-05T05:29:18.510Z,101261.69
2022-10-05T05:31:57.636Z,101250.41
2022-10-05T05:34:49.686Z,101252.63
2022-10-05T05:37:34.886Z,101249.56
2022-10-05T05:40:13.548Z,101250.56
2022-10-05T05:42:55.171Z,101252.25
2022-10-05T05:45:49.272Z,101256.31
2022-10-05T05:48:36.657Z,101244.50
2022-10-05T05:51:14.861Z,101243.66
2022-10-05T05:53:47.972Z,101226.16
2022-10-05T05:56:20.411Z,101249.75
2022-10-05T05:59:04.753Z,101257.31
2022-10-05T06:01:44.333Z,101243.19
2022-10-05T06:04:17.040Z,101242.19
2022-10-05T06:06:48.791Z,101218.97
2022-10-05T06:09:21.686Z,101229.56
2022-10-05T06:11:58.908Z,101241.34
2022-10-05T06:14:33.177Z,101241.34
2022-10-05T06:17:10.569Z,101236.63
2022-10-05T06:19:38.931Z,101234.28
2022-10-05T06:22:22.373Z,101252.44
2022-10-05T06:25:11.720Z,101246.03
2022-10-05T06:28:10.564Z,101244.88
2022-10-05T06:31:03.988Z,101239.81
2022-10-05T06:33:48.033Z,101244.88
2022-10-05T06:36:27.654Z,101254.78
2022-10-05T06:39:26.946Z,101249.91
2022-10-05T06:42:23.763Z,101248.41
2022-10-05T06:45:19.199Z,101248.56
2022-10-05T06:48:02.838Z,101255.63
2022-10-05T06:50:43.304Z,101258.50
2022-10-05T06:53:28.579Z,101254.31
2022-10-05T06:56:20.002Z,101249.28
2022-10-05T06:59:09.323Z,101248.06
2022-10-05T07:02:04.773Z,101244.03
2022-10-05T07:04:50.075Z,101250.09
2022-10-05T07:07:26.545Z,101242.53
2022-10-05T07:10:18.778Z,101236.81
2022-10-05T07:13:00.050Z,101232.13
2022-10-05T07:15:56.785Z,101239.66
2022-10-05T07:18:35.479Z,101244.56
2022-10-05T07:21:18.614Z,101238.00
2022-10-05T07:24:04.528Z,101238.31
2022-10-05T07:26:37.111Z,101238.31
2022-10-05T07:29:13.422Z,101241.69
2022-10-05T07:31:49.380Z,101235.97
2022-10-05T07:34:41.803Z,101252.44
2022-10-05T07:37:32.831Z,101247.38
2022-10-05T07:40:38.047Z,101235.59
2022-10-05T07:43:16.359Z,101229.75
2022-10-05T07:45:45.951Z,101232.06
2022-10-05T07:48:33.047Z,101237.28
2022-10-05T07:51:06.492Z,101240.66
2022-10-05T07:53:37.882Z,101241.84
2022-10-05T07:56:29.480Z,101246.22
2022-10-05T07:59:07.683Z,101248.56
2022-10-05T08:01:44.316Z,101245.38
2022-10-05T08:04:13.871Z,101252.28
2022-10-05T08:06:51.608Z,101251.59
2022-10-05T08:09:42.316Z,101255.78
2022-10-05T08:12:24.249Z,101256.16
2022-10-05T08:15:13.579Z,101264.88
2022-10-05T08:17:52.047Z,101251.06
2022-10-05T08:20:54.638Z,101262.47
2022-10-05T08:23:25.347Z,101265.16
2022-10-05T08:26:04.878Z,101259.09
2022-10-05T08:28:38.958Z,101266.81
2022-10-05T08:31:29.737Z,101266.13
2022-10-05T08:34:25.203Z,101259.31
2022-10-05T08:37:18.053Z,101255.22
2022-10-05T08:40:02.835Z,101262.91
2022-10-05T08:42:52.482Z,101257.00
2022-10-05T08:45:54.085Z,101257.94
2022-10-05T08:48:50.132Z,101257.22
2022-10-05T08:51:54.325Z,101253.56
2022-10-05T08:54:45.171Z,101256.56
2022-10-05T08:57:32.615Z,101255.00
2022-10-05T09:00:11.377Z,101249.94
2022-10-05T09:02:37.728Z,101239.34
2022-10-05T09:05:28.671Z,101255.19
2022-10-05T09:08:17.982Z,101251.47
2022-10-05T09:11:11.107Z,101244.03
2022-10-05T09:13:59.374Z,101247.56
2022-10-05T09:16:50.114Z,101218.97
2022-10-05T09:19:22.819Z,101225.81
2022-10-05T09:22:15.600Z,101241.22
2022-10-05T09:25:13.250Z,101221.53
2022-10-05T09:27:49.328Z,101222.44
2022-10-05T09:30:59.864Z,101206.69
2022-10-05T09:33:57.168Z,101214.75
2022-10-05T09:36:45.562Z,101224.91
2022-10-05T09:39:14.692Z,101224.25
2022-10-05T09:42:06.067Z,101208.50
2022-10-05T09:45:17.754Z,101228.44
2022-10-05T09:48:12.461Z,101211.75
2022-10-05T09:50:44.901Z,101220.97
2022-10-05T09:53:30.212Z,101217.97
2022-10-05T09:56:12.011Z,101217.25
2022-10-05T09:59:27.349Z,101224.22
2022-10-05T10:02:21.419Z,101211.72
2022-10-05T10:05:01.641Z,101215.56
2022-10-05T10:07:40.367Z,101208.28
2022-10-05T10:10:19.021Z,101206.69
2022-10-05T10:12:51.600Z,101211.44
2022-10-05T10:15:33.577Z,101203.44
2022-10-05T10:18:24.903Z,101202.13
2022-10-05T10:21:29.464Z,101208.75
2022-10-05T10:24:08.202Z,101197.75
2022-10-05T10:27:05.337Z,101201.84
2022-10-05T10:29:51.966Z,101200.75
2022-10-05T10:32:33.743Z,101202.25
2022-10-05T10:35:21.627Z,101200.28
2022-10-05T10:38:09.486Z,101198.59
2022-10-05T10:40:50.188Z,101207.34
2022-10-05T10:43:36.451Z,101198.13
2022-10-05T10:46:40.804Z,101207.72
2022-10-05T10:49:51.134Z,101208.56
2022-10-05T10:52:40.794Z,101202.06
2022-10-05T10:55:44.361Z,101201.06
2022-10-05T10:58:22.632Z,101206.84
2022-10-05T11:01:15.888Z,101198.66
2022-10-05T11:04:11.594Z,101200.31
2022-10-05T11:07:21.116Z,101202.81
2022-10-05T11:09:53.465Z,101199.00
2022-10-05T11:12:35.154Z,101191.25
2022-10-05T11:15:20.454Z,101198.81
2022-10-05T11:18:06.509Z,101182.97
2022-10-05T11:21:05.028Z,101190.25
2022-10-05T11:24:08.383Z,101193.25
2022-10-05T11:27:16.263Z,101184.31
2022-10-05T11:30:20.081Z,101178.91
2022-10-05T11:33:14.135Z,101180.56
2022-10-05T11:36:19.336Z,101170.38
2022-10-05T11:39:04.111Z,101175.78
2022-10-05T11:41:36.698Z,101177.22
2022-10-05T11:44:28.352Z,101176.44
2022-10-05T11:47:22.683Z,101145.50
2022-10-05T11:50:21.882Z,101168.63
2022-10-05T11:52:56.938Z,101162.22
2022-10-05T11:55:29.308Z,101160.03
2022-10-05T11:58:07.426Z,101149.66
2022-10-05T12:00:44.298Z,101150.50
2022-10-05T12:03:28.640Z,101148.06
2022-10-05T12:06:21.302Z,101133.53
2022-10-05T12:09:08.230Z,101138.84
2022-10-05T12:11:48.909Z,101135.00
2022-10-05T12:14:24.425Z,101125.88
2022-10-05T12:16:56.993Z,101130.25
2022-10-05T12:19:34.157Z,101124.25
2022-10-05T12:22:10.882Z,101117.09
2022-10-05T12:24:37.421Z,101113.44
2022-10-05T12:27:11.966Z,101109.50
2022-10-05T12:29:44.080Z,101114.06
2022-10-05T12:32:26.457Z,101109.63
2022-10-05T12:35:03.216Z,101099.88
2022-10-05T12:37:52.071Z,101086.41
2022-10-05T12:40:40.166Z,101081.81
2022-10-05T12:43:54.502Z,101088.00
2022-10-05T12:46:47.748Z,101094.75
2022-10-05T12:49:32.597Z,101086.13
2022-10-05T12:52:01.993Z,101078.97
2022-10-05T12:55:03.677Z,101077.13
2022-10-05T12:57:48.571Z,101085.56
2022-10-05T13:00:22.677Z,101069.28
2022-10-05T13:03:12.519Z,101069.59
2022-10-05T13:06:02.500Z,101063.72
2022-10-05T13:09:12.993Z,101071.06
2022-10-05T13:11:45.498Z,101069.47
2022-10-05T13:14:49.850Z,101067.31
2022-10-05T13:17:26.814Z,101068.81
2022-10-05T13:20:03.132Z,101068.34
2022-10-05T13:22:43.164Z,101055.69
2022-10-05T13:25:41.730Z,101053.63
2022-10-05T13:28:15.949Z,101054.91
2022-10-05T13:30:51.817Z,101040.97
2022-10-05T13:33:48.216Z,101052.47
2022-10-05T13:36:25.411Z,101051.63
2022-10-05T13:38:57.945Z,101043.88
2022-10-05T13:42:05.063Z,101057.06
2022-10-05T13:44:36.049Z,101049.09
2022-10-05T13:47:16.794Z,101043.09
2022-10-05T13:49:53.628Z,101045.59
2022-10-05T13:52:34.241Z,101056.03
2022-10-05T13:55:29.426Z,101051.66
2022-10-05T13:58:43.997Z,101042.09
2022-10-05T14:01:22.555Z,101047.91
2022-10-05T14:04:18.015Z,101041.66
2022-10-05T14:06:45.516Z,101043.69
2022-10-05T14:09:34.906Z,101032.69
2022-10-05T14:12:04.362Z,101040.81
2022-10-05T14:14:33.204Z,101045.81
2022-10-05T14:17:05.443Z,101050.63
2022-10-05T14:19:44.625Z,101051.91
2022-10-05T14:22:12.645Z,101054.22
2022-10-05T14:24:52.310Z,101048.81
2022-10-05T14:27:21.577Z,101052.75
2022-10-05T14:30:01.298Z,101044.63
2022-10-05T14:32:42.630Z,101051.13
2022-10-05T14:35:18.404Z,101045.69
2022-10-05T14:37:53.656Z,101045.69
2022-10-05T14:40:34.428Z,101041.91
2022-10-05T14:43:15.970Z,101029.00
2022-10-05T14:46:03.656Z,101043.00
2022-10-05T14:48:42.485Z,101029.22
2022-10-05T14:51:25.487Z,101026.94
2022-10-05T14:54:00.761Z,101036.75
2022-10-05T14:56:43.421Z,101032.81
2022-10-05T14:59:23.138Z,101013.84
2022-10-05T15:02:01.382Z,101017.84
2022-10-05T15:04:45.499Z,101019.09
2022-10-05T15:07:18.229Z,101018.25
2022-10-05T15:10:26.765Z,101020.56
2022-10-05T15:12:58.339Z,101014.72
2022-10-05T15:15:27.878Z,101012.22
2022-10-05T15:18:01.024Z,101004.25
2022-10-05T15:20:48.705Z,100999.69
2022-10-05T15:23:25.966Z,100982.97
2022-10-05T15:26:07.604Z,100988.81
2022-10-05T15:28:49.785Z,100981.72
2022-10-05T15:31:39.735Z,100973.78
2022-10-05T15:34:16.573Z,100964.19
2022-10-05T15:36:47.986Z,100967.97
2022-10-05T15:39:48.605Z,100963.63
2022-10-05T15:42:22.936Z,100949.81
2022-10-05T15:45:24.023Z,100954.28
2022-10-05T15:48:02.601Z,100960.94
2022-10-05T15:50:35.686Z,100950.06
2022-10-05T15:53:18.349Z,100947.97
2022-10-05T15:55:56.169Z,100962.56
2022-10-05T15:58:39.387Z,100972.38
2022-10-05T16:01:18.687Z,100966.31
2022-10-05T16:04:00.164Z,100972.31
2022-10-05T16:06:48.015Z,100980.69
2022-10-05T16:09:37.315Z,100978.56
2022-10-05T16:12:22.211Z,100977.97
2022-10-05T16:15:16.060Z,100968.13
2022-10-05T16:18:01.021Z,100980.22
2022-10-05T16:20:42.670Z,100976.84
2022-10-05T16:23:28.129Z,100976.19
2022-10-05T16:26:09.286Z,100978.03
2022-10-05T16:28:44.640Z,100978.19
2022-10-05T16:31:16.325Z,100982.09
2022-10-05T16:33:54.371Z,100985.41
2022-10-05T16:36:27.290Z,100990.78
2022-10-05T16:39:37.440Z,100989.50
2022-10-05T16:42:16.787Z,100988.72
2022-10-05T16:44:43.226Z,100987.97
2022-10-05T16:47:32.290Z,100997.78
2022-10-05T16:50:23.887Z,101002.25
2022-10-05T16:53:29.169Z,101006.19
2022-10-05T16:56:04.054Z,101004.47
2022-10-05T16:58:56.327Z,101009.69
2022-10-05T17:01:54.361Z,101021.97
2022-10-05T17:04:31.909Z,101028.44
2022-10-05T17:07:28.780Z,101031.75
2022-10-05T17:10:19.888Z,101033.63
2022-10-05T17:13:11.617Z,101036.53
2022-10-05T17:16:00.818Z,101036.28
2022-10-05T17:19:01.581Z,101049.84
2022-10-05T17:21:44.401Z,101035.81
2022-10-05T17:24:44.024Z,101045.25
2022-10-05T17:27:33.776Z,101043.00
2022-10-05T17:30:18.629Z,101043.19
2022-10-05T17:32:56.238Z,101049.16
2022-10-05T17:35:58.323Z,101041.88
2022-10-05T17:38:30.686Z,101046.84
2022-10-05T17:41:00.060Z,101048.72
2022-10-05T17:43:31.143Z,101053.47
2022-10-05T17:46:00.397Z,101050.75
2022-10-05T17:48:48.589Z,101038.72
2022-10-05T17:51:48.958Z,101041.81
2022-10-05T17:54:50.190Z,101041.94
2022-10-05T17:57:24.181Z,101044.66
2022-10-05T17:59:53.234Z,101045.88
2022-10-05T18:02:19.611Z,101033.75
2022-10-05T18:05:00.499Z,101028.34
2022-10-05T18:07:27.634Z,101030.41
2022-10-05T18:10:01.080Z,101035.38
2022-10-05T18:12:41.444Z,101014.97
2022-10-05T18:15:07.757Z,101022.06
2022-10-05T18:18:32.265Z,101023.13
2022-10-05T18:21:13.863Z,101016.63
2022-10-05T18:23:52.168Z,101013.94
2022-10-05T18:26:23.757Z,101004.06
2022-10-05T18:29:14.197Z,101007.59
2022-10-05T18:31:55.130Z,100986.13
2022-10-05T18:34:39.287Z,100991.84
2022-10-05T18:37:08.625Z,100999.06
2022-10-05T18:39:56.679Z,100997.44
2022-10-05T18:42:55.950Z,100984.72
2022-10-05T18:45:32.289Z,100998.22
2022-10-05T18:48:01.298Z,100996.75
2022-10-05T18:50:46.394Z,101000.72
2022-10-05T18:53:43.041Z,100993.00
2022-10-05T18:56:23.136Z,100999.44
2022-10-05T18:58:56.763Z,100997.56
2022-10-05T19:01:38.458Z,100994.69
2022-10-05T19:04:22.186Z,100993.19
2022-10-05T19:07:11.291Z,100994.03
2022-10-05T19:09:52.519Z,101000.00
2022-10-05T19:12:32.731Z,100994.34
2022-10-05T19:15:25.312Z,100995.63
2022-10-05T19:17:58.662Z,100990.59
2022-10-05T19:20:27.979Z,100995.81
2022-10-05T19:23:27.046Z,101000.94
2022-10-05T19:26:07.181Z,100994.22
2022-10-05T19:29:07.318Z,100995.25
2022-10-05T19:31:40.875Z,101005.94
2022-10-05T19:34:07.298Z,101001.03
2022-10-05T19:37:01.189Z,101008.13
2022-10-05T19:39:52.121Z,101012.03
2022-10-05T19:42:45.124Z,101013.91
2022-10-05T19:45:51.870Z,101024.63
2022-10-05T19:48:47.391Z,101023.59
2022-10-05T19:51:31.412Z,101016.56
2022-10-05T19:54:01.886Z,101021.41
2022-10-05T19:56:32.706Z,101029.50
2022-10-05T19:59:13.108Z,101031.06
2022-10-05T20:01:40.653Z,101042.91
2022-10-05T20:04:08.025Z,101037.72
2022-10-05T20:06:34.541Z,101037.75
2022-10-05T20:09:19.733Z,101046.78
2022-10-05T20:11:53.295Z,101050.13
2022-10-05T20:14:28.459Z,101053.66
2022-10-05T20:17:44.058Z,101051.41
2022-10-05T20:20:36.777Z,101051.22
2022-10-05T20:23:23.023Z,101048.72
2022-10-05T20:26:09.507Z,101047.22
2022-10-05T20:28:36.413Z,101052.63
2022-10-05T20:31:03.439Z,101049.53
2022-10-05T20:33:30.036Z,101039.75
2022-10-05T20:35:56.469Z,101037.44
2022-10-05T20:38:22.914Z,101047.22
2022-10-05T20:40:49.272Z,101053.22
2022-10-05T20:43:15.745Z,101043.25
2022-10-05T20:45:43.762Z,101050.91
2022-10-05T20:48:11.480Z,101055.47
2022-10-05T20:50:38.038Z,101057.34
2022-10-05T20:53:10.990Z,101054.81
2022-10-05T20:55:38.186Z,101053.81
2022-10-05T20:58:04.556Z,101055.09
2022-10-05T21:00:50.995Z,101058.44
2022-10-05T21:03:18.564Z,101058.03
2022-10-05T21:05:46.761Z,101058.03
2022-10-05T21:08:13.166Z,101055.78
2022-10-05T21:10:40.037Z,101048.72
2022-10-05T21:13:06.394Z,101057.47
2022-10-05T21:15:32.724Z,101062.31
2022-10-05T21:17:59.163Z,101064.38
2022-10-05T21:20:25.984Z,101066.69
2022-10-05T21:22:52.390Z,101062.50
2022-10-05T21:25:18.810Z,101057.34
2022-10-05T21:27:46.342Z,101070.03
2022-10-05T21:30:12.842Z,101053.16
2022-10-05T21:32:44.072Z,101068.75
2022-10-05T21:35:10.986Z,101087.97
2022-10-05T21:37:37.371Z,101086.28
2022-10-05T21:40:04.177Z,101092.53
2022-10-05T21:42:30.722Z,101095.44
2022-10-05T21:44:57.129Z,101063.72
2022-10-05T21:47:23.516Z,101095.25
2022-10-05T21:49:49.879Z,101095.28
2022-10-05T21:52:16.303Z,101089.50
2022-10-05T21:54:42.781Z,101095.59
2022-10-05T21:57:12.450Z,101095.03
2022-10-05T21:59:40.098Z,101106.88
2022-10-05T22:02:06.537Z,101106.47
2022-10-05T22:04:33.073Z,101095.03
2022-10-05T22:06:59.706Z,101098.53
2022-10-05T22:09:26.122Z,101091.25
2022-10-05T22:11:52.667Z,101095.44
2022-10-05T22:14:19.053Z,101099.81
2022-10-05T22:16:45.645Z,101101.03
2022-10-05T22:19:18.847Z,101100.47
2022-10-05T22:21:45.210Z,101101.69
2022-10-05T22:24:11.726Z,101086.91
2022-10-05T22:26:39.986Z,101113.81
2022-10-05T22:29:06.361Z,101118.41
2022-10-05T22:31:32.909Z,101116.72
2022-10-05T22:33:59.341Z,101118.47
2022-10-05T22:36:25.991Z,101134.72
2022-10-05T22:38:52.389Z,101134.50
2022-10-05T22:41:19.378Z,101150.53
2022-10-05T22:43:49.981Z,101148.63
2022-10-05T22:46:16.688Z,101175.69
2022-10-05T22:48:43.390Z,101190.13
2022-10-05T22:51:10.072Z,101219.06
2022-10-05T22:53:36.481Z,101218.94
2022-10-05T22:56:08.685Z,101191.78
2022-10-05T22:58:35.602Z,101186.03
2022-10-05T23:01:07.164Z,101187.91
2022-10-05T23:03:34.247Z,101208.56
2022-10-05T23:06:03.633Z,101202.63
2022-10-05T23:08:35.149Z,101218.03
2022-10-05T23:11:06.082Z,101229.25
2022-10-05T23:13:33.341Z,101218.13
2022-10-05T23:16:06.638Z,101226.31
2022-10-05T23:18:33.895Z,101230.50
2022-10-05T23:21:00.298Z,101220.28
2022-10-05T23:23:27.487Z,101207.97
2022-10-05T23:25:59.802Z,101227.53
2022-10-05T23:28:27.094Z,101213.06
2022-10-05T23:31:01.347Z,101226.03
2022-10-05T23:33:28.519Z,101232.25
2022-10-05T23:36:18.621Z,101228.72
2022-10-05T23:38:45.728Z,101221.28
2022-10-05T23:41:12.721Z,101249.28
2022-10-05T23:43:39.751Z,101267.16
2022-10-05T23:46:07.197Z,101259.06
2022-10-05T23:48:33.925Z,101273.84
2022-10-05T23:51:00.681Z,101284.47
2022-10-05T23:53:27.504Z,101294.09
2022-10-05T23:55:54.757Z,101309.13
2022-10-05T23:58:22.660Z,101314.53
